Time;durP1;ratioP1;P1;durP2;ratioP2;P2;SDS_P1;SDS_P2;PMS_P1;PMS_P2;Temp;Humidity;BMP_temperature;BMP_pressure;BME280_temperature;BME280_humidity;BME280_pressure;Samples;Min_cycle;Max_cycle;Signal;HPM_P1;HPM_P2
2021/12/12 00:04:46;;;;;;;56.90;23.92;;;;;;;3.26;100.00;101909.44;10566180;28;20048;-66
2021/12/12 00:10:14;;;;;;;55.67;24.13;;;;;;;3.24;100.00;101906.03;10539201;28;20051;-66
2021/12/12 00:15:35;;;;;;;51.47;23.33;;;;;;;3.31;100.00;101903.31;10528670;28;20051;-65
2021/12/12 00:20:57;;;;;;;57.20;23.65;;;;;;;3.36;100.00;101896.34;10533785;28;20051;-65
2021/12/12 00:26:19;;;;;;;55.63;23.98;;;;;;;3.43;100.00;101887.63;10534457;28;20381;-66
2021/12/12 00:31:42;;;;;;;49.60;23.35;;;;;;;3.49;100.00;101887.53;10575937;28;20043;-65
2021/12/12 00:37:07;;;;;;;53.28;24.35;;;;;;;3.46;100.00;101874.72;10545659;28;20052;-66
2021/12/12 00:42:36;;;;;;;51.10;23.08;;;;;;;3.43;100.00;101867.03;10530417;28;20043;-65
2021/12/12 00:47:57;;;;;;;52.92;24.77;;;;;;;3.54;100.00;101870.25;10565212;28;20391;-64
2021/12/12 00:53:21;;;;;;;54.40;24.83;;;;;;;3.55;100.00;101869.38;10535079;28;20139;-66
2021/12/12 00:58:42;;;;;;;59.65;24.80;;;;;;;3.60;100.00;101859.81;10558650;28;20518;-66
2021/12/12 01:04:19;;;;;;;50.78;24.55;;;;;;;3.65;100.00;101857.16;10537985;28;20051;-65
2021/12/12 01:09:55;;;;;;;54.72;26.90;;;;;;;3.71;100.00;101852.72;10531992;28;20527;-65
2021/12/12 01:15:20;;;;;;;67.53;28.13;;;;;;;3.78;100.00;101854.31;10537579;28;20082;-66
2021/12/12 01:20:56;;;;;;;62.87;28.47;;;;;;;3.82;100.00;101855.91;10544097;28;20062;-67
2021/12/12 01:26:18;;;;;;;62.17;28.55;;;;;;;3.88;100.00;101860.97;10529297;28;20039;-65
2021/12/12 01:31:46;;;;;;;62.45;28.50;;;;;;;3.95;100.00;101862.50;10548338;28;20055;-66
2021/12/12 01:43:36;;;;;;;64.32;30.20;;;;;;;4.07;100.00;101846.81;10557040;28;20487;-66
2021/12/12 01:49:13;;;;;;;65.47;30.00;;;;;;;4.10;100.00;101846.69;10552022;28;20052;-66
2021/12/12 01:54:43;;;;;;;68.97;30.35;;;;;;;4.17;100.00;101850.88;10562176;28;20050;-66
2021/12/12 02:00:12;;;;;;;64.03;31.25;;;;;;;4.22;100.00;101846.47;10555007;28;20072;-66
2021/12/12 02:05:36;;;;;;;67.70;31.20;;;;;;;4.25;100.00;101841.19;10566382;28;20465;-66
2021/12/12 02:11:05;;;;;;;62.42;29.63;;;;;;;4.27;100.00;101849.75;10528767;28;20681;-66
2021/12/12 02:16:27;;;;;;;68.80;30.13;;;;;;;4.29;100.00;101848.00;10541455;28;20048;-66
2021/12/12 02:22:02;;;;;;;70.85;30.60;;;;;;;4.33;100.00;101859.97;10570339;28;20043;-66
2021/12/12 02:38:48;;;;;;;70.72;30.45;;;;;;;4.38;100.00;101843.47;10570122;28;20052;-66
2021/12/12 02:44:11;;;;;;;73.65;31.73;;;;;;;4.41;100.00;101839.97;10567584;28;20507;-68
2021/12/12 02:49:39;;;;;;;63.95;28.65;;;;;;;4.45;100.00;101833.88;10561974;28;20055;-66
2021/12/12 02:55:09;;;;;;;64.95;29.77;;;;;;;4.47;100.00;101847.59;10559626;28;20043;-66
2021/12/12 03:00:35;;;;;;;65.68;28.42;;;;;;;4.52;100.00;101845.72;10560929;28;20518;-66
2021/12/12 03:05:59;;;;;;;66.88;30.20;;;;;;;4.49;100.00;101850.97;10574087;27;20483;-65
2021/12/12 03:11:22;;;;;;;66.60;30.88;;;;;;;4.57;100.00;101846.47;10590103;27;20051;-66
2021/12/12 03:16:45;;;;;;;66.90;30.05;;;;;;;4.55;100.00;101841.34;10559887;28;20506;-66
2021/12/12 03:22:09;;;;;;;68.50;31.25;;;;;;;4.61;100.00;101833.44;10542815;28;20047;-66
2021/12/12 03:27:31;;;;;;;60.60;29.80;;;;;;;4.61;100.00;101840.34;10567426;28;20051;-66
2021/12/12 03:32:52;;;;;;;60.22;30.48;;;;;;;4.65;100.00;101837.66;10561539;28;20411;-66
2021/12/12 03:38:14;;;;;;;69.38;30.70;;;;;;;4.65;100.00;101834.25;10547513;28;20048;-66
2021/12/12 03:43:37;;;;;;;71.28;31.23;;;;;;;4.64;100.00;101835.13;10571937;27;20502;-66
2021/12/12 03:48:59;;;;;;;58.90;29.67;;;;;;;4.67;100.00;101827.28;10608456;27;20047;-66
2021/12/12 03:54:21;;;;;;;65.00;30.13;;;;;;;4.67;100.00;101835.03;10554626;27;20083;-64
2021/12/12 03:59:43;;;;;;;53.20;28.40;;;;;;;4.68;100.00;101828.97;10580606;27;20043;-66
2021/12/12 04:05:05;;;;;;;54.88;28.52;;;;;;;4.63;100.00;101828.25;10566047;28;20055;-66
2021/12/12 04:10:27;;;;;;;59.80;28.23;;;;;;;4.68;100.00;101826.41;10556785;28;20618;-66
2021/12/12 04:15:55;;;;;;;57.33;27.35;;;;;;;4.64;100.00;101835.13;10563265;28;20043;-66
2021/12/12 04:21:20;;;;;;;52.30;26.58;;;;;;;4.71;100.00;101816.00;10565107;28;20574;-66
2021/12/12 04:26:45;;;;;;;48.05;25.13;;;;;;;4.69;100.00;101812.59;10561639;28;20081;-66
2021/12/12 04:32:11;;;;;;;45.17;23.65;;;;;;;4.68;100.00;101810.91;10552827;28;20044;-66
2021/12/12 04:37:32;;;;;;;;;;;;;;;4.63;100.00;101797.28;10564570;28;20062;-66
2021/12/12 04:42:55;;;;;;;44.97;20.95;;;;;;;4.69;100.00;101791.94;10564599;28;19919;-66
2021/12/12 04:54:12;;;;;;;41.75;20.67;;;;;;;4.69;100.00;101779.03;10521882;28;20362;-67
2021/12/12 04:59:45;;;;;;;37.25;18.98;;;;;;;4.71;100.00;101769.53;10539330;28;20223;-67
2021/12/12 05:05:29;;;;;;;37.05;18.17;;;;;;;4.71;100.00;101770.38;10541731;28;20187;-66
2021/12/12 05:10:59;;;;;;;38.45;17.48;;;;;;;4.71;100.00;101756.59;10558278;28;20055;-66
2021/12/12 05:16:29;;;;;;;33.33;14.88;;;;;;;4.67;100.00;101750.69;10563418;28;20058;-66
2021/12/12 05:21:55;;;;;;;30.67;14.27;;;;;;;4.69;100.00;101737.72;10537962;28;20063;-66
2021/12/12 05:27:18;;;;;;;;;;;;;;;4.71;100.00;101739.41;10521380;28;20055;-66
2021/12/12 05:32:41;;;;;;;38.13;14.55;;;;;;;4.73;100.00;101738.47;10527964;28;19920;-65
2021/12/12 05:38:04;;;;;;;31.10;14.15;;;;;;;4.79;100.00;101727.97;10548333;28;20055;-66
2021/12/12 05:43:26;;;;;;;28.38;13.27;;;;;;;4.79;100.00;101722.81;10562162;28;20066;-66
2021/12/12 05:48:50;;;;;;;31.90;13.93;;;;;;;4.80;100.00;101713.31;10539890;28;20050;-66
2021/12/12 05:54:12;;;;;;;27.05;13.20;;;;;;;4.82;100.00;101701.22;10534189;28;20048;-66
2021/12/12 05:59:34;;;;;;;30.05;12.80;;;;;;;4.85;100.00;101701.97;10509220;28;20052;-66
2021/12/12 06:04:59;;;;;;;34.83;13.25;;;;;;;4.85;100.00;101696.81;10553236;28;20044;-67
2021/12/12 06:10:23;;;;;;;26.05;12.10;;;;;;;4.85;100.00;101712.31;10506902;28;20637;-66
2021/12/12 06:15:49;;;;;;;32.38;12.15;;;;;;;4.89;100.00;101708.75;10558779;28;20050;-66
2021/12/12 06:21:14;;;;;;;26.15;12.27;;;;;;;4.89;100.00;101701.00;10537041;28;20052;-67
2021/12/12 06:26:37;;;;;;;28.50;12.07;;;;;;;4.93;100.00;101696.59;10519626;28;20059;-66
2021/12/12 06:31:58;;;;;;;23.90;11.80;;;;;;;4.92;100.00;101703.50;10556199;28;20050;-66
2021/12/12 06:37:22;;;;;;;26.58;12.00;;;;;;;4.94;100.00;101712.06;10562837;28;20044;-67
2021/12/12 06:42:43;;;;;;;24.90;11.88;;;;;;;4.92;100.00;101703.50;10562474;28;20047;-66
2021/12/12 06:48:07;;;;;;;20.23;11.18;;;;;;;4.97;100.00;101722.28;10542609;28;20052;-66
2021/12/12 06:53:34;;;;;;;18.20;10.38;;;;;;;4.98;100.00;101703.31;10526695;28;20051;-66
2021/12/12 06:58:57;;;;;;;24.65;10.45;;;;;;;5.01;100.00;101703.25;10527076;28;20423;-66
2021/12/12 07:04:23;;;;;;;22.58;9.68;;;;;;;5.00;100.00;101701.56;10525170;28;20044;-66
2021/12/12 07:09:47;;;;;;;15.95;9.23;;;;;;;5.00;100.00;101701.56;10534279;28;20671;-65
2021/12/12 07:15:12;;;;;;;18.45;9.85;;;;;;;5.01;100.00;101692.91;10551317;27;20500;-65
2021/12/12 07:20:34;;;;;;;18.83;9.70;;;;;;;5.03;100.00;101698.03;10538383;27;20061;-65
2021/12/12 07:25:59;;;;;;;17.73;9.82;;;;;;;5.07;100.00;101703.09;10563060;28;20040;-66
2021/12/12 07:31:25;;;;;;;17.13;9.43;;;;;;;5.03;100.00;101706.63;10530053;28;20086;-65
2021/12/12 07:36:50;;;;;;;13.75;8.93;;;;;;;5.07;100.00;101707.38;10557119;27;20305;-65
2021/12/12 07:42:15;;;;;;;16.00;8.88;;;;;;;5.09;100.00;101706.47;10554582;28;20055;-65
2021/12/12 07:47:37;;;;;;;15.63;7.82;;;;;;;5.07;100.00;101712.56;10551412;27;20051;-66
2021/12/12 07:52:59;;;;;;;18.30;8.63;;;;;;;5.12;100.00;101721.03;10568396;27;20050;-66
2021/12/12 07:58:22;;;;;;;17.38;8.50;;;;;;;5.11;100.00;101730.50;10537479;28;20051;-66
2021/12/12 08:03:44;;;;;;;17.48;8.30;;;;;;;5.14;100.00;101720.09;10572888;27;20048;-65
2021/12/12 08:09:07;;;;;;;12.98;8.30;;;;;;;5.20;100.00;101729.41;10570197;27;20142;-66
2021/12/12 08:14:29;;;;;;;13.00;8.77;;;;;;;5.19;100.00;101712.19;10548198;27;20048;-66
2021/12/12 08:19:55;;;;;;;10.98;7.45;;;;;;;5.22;100.00;101713.00;10569478;27;20048;-67
2021/12/12 08:25:18;;;;;;;10.68;7.22;;;;;;;5.23;100.00;101730.19;10560163;27;20039;-66
2021/12/12 08:30:40;;;;;;;13.93;8.32;;;;;;;5.29;100.00;101724.81;10558180;27;20040;-66
2021/12/12 08:36:02;;;;;;;9.10;7.80;;;;;;;5.32;100.00;101724.75;10547859;27;20044;-66
2021/12/12 08:41:24;;;;;;;9.98;7.95;;;;;;;5.36;100.00;101721.19;10535433;27;20054;-66
2021/12/12 08:46:49;;;;;;;9.48;8.18;;;;;;;5.35;100.00;101705.72;10514029;27;20039;-64
2021/12/12 08:52:20;;;;;;;9.25;8.02;;;;;;;5.43;100.00;101720.09;10550666;27;20052;-64
2021/12/12 08:57:51;;;;;;;11.90;8.40;;;;;;;5.44;100.00;101719.22;10544801;28;20071;-64
2021/12/12 09:03:36;;;;;;;11.05;8.20;;;;;;;5.50;100.00;101718.19;10522489;28;20707;-65
2021/12/12 09:09:03;;;;;;;12.38;8.55;;;;;;;5.53;100.00;101708.59;10563872;28;20139;-64
2021/12/12 09:14:50;;;;;;;13.30;8.75;;;;;;;5.60;100.00;101720.44;10563862;27;20052;-65
2021/12/12 09:20:25;;;;;;;10.75;8.65;;;;;;;5.65;100.00;101720.31;10508367;28;20498;-65
2021/12/12 09:26:18;;;;;;;10.07;8.95;;;;;;;5.70;100.00;101729.63;10520670;28;20048;-65
2021/12/12 09:32:05;;;;;;;10.88;8.40;;;;;;;5.73;100.00;101738.16;10548073;28;20056;-65
2021/12/12 09:37:44;;;;;;;9.27;8.18;;;;;;;5.79;100.00;101742.31;10552892;28;20055;-63
2021/12/12 09:43:28;;;;;;;10.20;8.18;;;;;;;5.81;100.00;101732.78;10554075;28;20075;-65
2021/12/12 09:55:14;;;;;;;9.13;8.20;;;;;;;5.94;100.00;101736.69;10537946;28;20050;-64
2021/12/12 10:00:49;;;;;;;11.60;8.98;;;;;;;6.00;100.00;101741.66;10534134;28;20079;-64
2021/12/12 10:06:16;;;;;;;9.82;8.82;;;;;;;6.02;100.00;101750.22;10556369;28;20068;-65
2021/12/12 10:11:52;;;;;;;14.80;9.48;;;;;;;6.06;100.00;101726.75;10561506;28;20048;-65
2021/12/12 10:17:42;;;;;;;13.73;8.68;;;;;;;6.16;100.00;101737.69;10588674;28;20354;-65
2021/12/12 10:23:15;;;;;;;11.48;9.63;;;;;;;6.18;100.00;101730.72;10564483;27;20071;-65
2021/12/12 10:28:43;;;;;;;11.07;8.75;;;;;;;6.21;100.00;101741.81;10554588;27;20063;-65
2021/12/12 10:34:32;;;;;;;12.00;8.85;;;;;;;6.27;100.00;101735.59;10563630;27;20040;-65
2021/12/12 10:39:59;;;;;;;10.25;8.43;;;;;;;6.32;100.00;101733.69;10543482;27;20043;-64
2021/12/12 10:45:28;;;;;;;10.55;9.45;;;;;;;6.36;100.00;101741.31;10539977;27;20044;-64
2021/12/12 10:51:11;;;;;;;11.43;8.88;;;;;;;6.43;100.00;101731.59;10540847;27;20051;-67
2021/12/12 10:56:55;;;;;;;10.25;8.95;;;;;;;6.47;100.00;101743.56;10568289;27;20047;-64
2021/12/12 11:02:30;;;;;;;12.60;9.15;;;;;;;6.51;100.00;101745.16;10567017;27;20459;-64
2021/12/12 11:08:08;;;;;;;10.70;8.98;;;;;;;6.57;100.00;101729.38;10556057;27;20063;-64
2021/12/12 11:14:20;;;;;;;10.38;9.25;;;;;;;6.68;100.00;101732.50;10566438;28;20040;-64
2021/12/12 11:19:51;;;;;;;14.32;9.30;;;;;;;6.70;100.00;101737.53;10550559;28;20048;-65
2021/12/12 11:25:25;;;;;;;12.23;8.90;;;;;;;6.79;100.00;101731.19;10541291;28;20717;-64
2021/12/12 11:30:53;;;;;;;11.32;8.85;;;;;;;6.86;100.00;101727.50;10532661;28;20134;-64
2021/12/12 11:36:20;;;;;;;11.95;8.70;;;;;;;6.91;100.00;101723.03;10539367;27;20044;-64
2021/12/12 11:41:57;;;;;;;10.50;8.52;;;;;;;6.95;100.00;101727.16;10562430;28;20252;-65
2021/12/12 11:47:35;;;;;;;11.50;9.32;;;;;;;6.99;100.00;101731.34;10524885;28;20059;-64
2021/12/12 11:53:11;;;;;;;12.30;8.25;;;;;;;7.01;100.00;101732.16;10547789;28;20051;-65
2021/12/12 11:58:38;;;;;;;12.68;8.65;;;;;;;7.05;100.00;101729.38;10564064;28;20047;-64
2021/12/12 12:04:09;;;;;;;12.95;8.85;;;;;;;7.17;100.00;101739.31;10544709;28;20130;-64
2021/12/12 12:10:01;;;;;;;11.45;8.15;;;;;;;7.14;100.00;101748.97;10564522;28;20067;-64
2021/12/12 12:15:49;;;;;;;11.88;8.57;;;;;;;7.23;100.00;101754.66;10559852;28;20056;-65
2021/12/12 12:21:32;;;;;;;12.60;8.43;;;;;;;7.34;100.00;101759.47;10557530;27;20052;-64
2021/12/12 12:27:17;;;;;;;17.65;8.80;;;;;;;7.36;100.00;101766.28;10558460;27;20053;-65
2021/12/12 12:32:41;;;;;;;12.10;7.90;;;;;;;7.45;100.00;101771.13;10546323;27;20059;-65
2021/12/12 12:38:42;;;;;;;11.43;7.82;;;;;;;7.49;100.00;101766.69;10557753;28;20059;-65
2021/12/12 12:44:41;;;;;;;11.55;7.88;;;;;;;7.59;100.00;101779.22;10540588;28;20047;-64
2021/12/12 12:50:31;;;;;;;11.77;8.27;;;;;;;7.62;100.00;101773.94;10523571;28;20064;-64
2021/12/12 12:56:50;;;;;;;11.55;6.97;;;;;;;7.71;100.00;101761.47;10522767;28;20048;-63
2021/12/12 13:02:14;;;;;;;8.40;6.53;;;;;;;7.74;100.00;101763.94;10549235;28;20043;-65
2021/12/12 13:07:39;;;;;;;11.05;7.13;;;;;;;7.79;100.00;101766.38;10563631;28;20458;-64
2021/12/12 13:13:30;;;;;;;10.82;7.55;;;;;;;7.80;100.00;101774.06;10538234;28;20051;-65
2021/12/12 13:18:56;;;;;;;9.77;7.35;;;;;;;7.85;100.00;101779.94;10539478;28;20054;-64
2021/12/12 13:24:35;;;;;;;10.90;7.50;;;;;;;7.91;100.00;101784.06;10521424;28;20439;-64
2021/12/12 13:30:06;;;;;;;11.70;7.45;;;;;;;7.95;100.00;101793.44;10521732;28;20051;-64
2021/12/12 13:35:40;;;;;;;10.63;7.65;;;;;;;7.98;100.00;101793.31;10525786;28;20054;-64
2021/12/12 13:41:15;;;;;;;9.55;7.45;;;;;;;8.06;100.00;101796.44;10515597;28;20055;-64
2021/12/12 13:47:02;;;;;;;10.45;6.78;;;;;;;8.09;100.00;101802.34;10520559;28;20040;-64
2021/12/12 13:52:46;;;;;;;11.63;7.40;;;;;;;8.10;100.00;101808.41;10528302;28;20507;-64
2021/12/12 13:58:34;;;;;;;9.23;6.90;;;;;;;8.17;100.00;101818.53;10527605;28;20058;-64
2021/12/12 14:04:07;;;;;;;8.93;7.07;;;;;;;8.19;100.00;101821.06;10547119;28;20050;-64
2021/12/12 14:09:30;;;;;;;8.18;6.28;;;;;;;8.22;100.00;101829.59;10562889;28;20488;-65
2021/12/12 14:14:58;;;;;;;7.50;6.40;;;;;;;8.26;100.00;101831.16;10560584;28;20101;-64
2021/12/12 14:20:21;;;;;;;10.95;6.63;;;;;;;8.28;100.00;101841.50;10540502;28;20044;-64
2021/12/12 14:25:47;;;;;;;10.27;7.20;;;;;;;8.30;100.00;101839.66;10542406;28;20052;-65
2021/12/12 14:31:10;;;;;;;8.80;6.40;;;;;;;8.32;100.00;101846.50;10536445;28;20097;-65
2021/12/12 14:36:35;;;;;;;6.90;6.10;;;;;;;8.38;100.00;101846.25;10540995;28;20492;-64
2021/12/12 14:42:06;;;;;;;9.65;6.18;;;;;;;8.39;100.00;101857.50;10528370;28;20051;-64
2021/12/12 14:47:31;;;;;;;7.68;6.35;;;;;;;8.41;100.00;101858.31;10527443;28;20058;-64
2021/12/12 14:52:59;;;;;;;7.57;5.95;;;;;;;8.45;100.00;101858.13;10564564;28;20051;-64
2021/12/12 14:58:26;;;;;;;9.10;5.85;;;;;;;8.47;100.00;101858.03;10565004;28;20484;-64
2021/12/12 15:03:51;;;;;;;9.18;6.32;;;;;;;8.51;100.00;101870.00;10564953;28;20044;-64
2021/12/12 15:09:28;;;;;;;7.53;6.13;;;;;;;8.53;100.00;101870.81;10554530;28;20048;-64
2021/12/12 15:14:59;;;;;;;8.15;6.55;;;;;;;8.52;100.00;101880.34;10557468;28;20043;-64
2021/12/12 15:20:30;;;;;;;8.15;6.55;;;;;;;8.55;100.00;101877.63;10543598;28;20048;-64
2021/12/12 15:25:58;;;;;;;7.57;6.75;;;;;;;8.55;100.00;101882.00;10527715;28;20048;-63
2021/12/12 15:31:38;;;;;;;8.38;7.25;;;;;;;8.58;100.00;101885.31;10537849;28;20051;-65
2021/12/12 15:37:08;;;;;;;9.63;7.38;;;;;;;8.58;100.00;101885.31;10539549;28;20048;-64
2021/12/12 15:42:31;;;;;;;10.10;7.20;;;;;;;8.58;100.00;101887.91;10545524;28;20069;-64
2021/12/12 15:47:55;;;;;;;11.63;7.95;;;;;;;8.59;100.00;101887.81;10567580;28;20391;-64
2021/12/12 15:53:22;;;;;;;10.93;8.27;;;;;;;8.61;100.00;101892.97;10566779;28;20051;-64
2021/12/12 15:58:50;;;;;;;11.50;8.48;;;;;;;8.62;100.00;101905.06;10567235;28;20063;-64
2021/12/12 16:04:21;;;;;;;9.70;7.95;;;;;;;8.66;100.00;101906.63;10554833;28;20047;-65
2021/12/12 16:09:48;;;;;;;12.35;9.05;;;;;;;8.69;100.00;101909.97;10559087;28;20059;-65
2021/12/12 16:15:12;;;;;;;11.05;8.52;;;;;;;8.67;100.00;101911.78;10558241;28;20050;-65
2021/12/12 16:20:45;;;;;;;11.00;8.93;;;;;;;8.72;100.00;101932.38;10537245;28;20055;-64
2021/12/12 16:26:07;;;;;;;13.55;9.68;;;;;;;8.70;100.00;101936.78;10543758;28;20055;-66
2021/12/12 16:31:31;;;;;;;11.98;9.20;;;;;;;8.70;100.00;101940.25;10561392;28;20058;-65
2021/12/12 16:37:01;;;;;;;13.10;9.60;;;;;;;8.72;100.00;101941.03;10538947;28;20055;-66
2021/12/12 16:42:26;;;;;;;14.23;9.85;;;;;;;8.80;100.00;101943.34;10542557;28;20058;-66
2021/12/12 16:47:53;;;;;;;11.67;9.43;;;;;;;8.77;100.00;101944.28;10546804;28;20036;-66
2021/12/12 16:53:26;;;;;;;16.63;10.07;;;;;;;8.82;100.00;101942.38;10573685;27;20503;-66
2021/12/12 16:58:50;;;;;;;12.82;9.98;;;;;;;8.87;100.00;101950.84;10534601;28;20534;-66
2021/12/12 17:04:16;;;;;;;12.68;10.25;;;;;;;8.89;100.00;101954.19;10549064;28;20495;-66
2021/12/12 17:09:59;;;;;;;12.20;9.55;;;;;;;8.89;100.00;101964.59;10532962;27;20055;-65
2021/12/12 17:15:25;;;;;;;12.30;10.00;;;;;;;8.91;100.00;101965.41;10534174;27;20043;-66
2021/12/12 17:21:00;;;;;;;15.32;11.23;;;;;;;8.96;100.00;101967.81;10555441;28;20048;-66
2021/12/12 17:26:25;;;;;;;14.52;10.88;;;;;;;8.94;100.00;101973.06;10537810;28;20044;-66
2021/12/12 17:31:48;;;;;;;16.97;11.53;;;;;;;8.99;100.00;101971.16;10552949;28;20052;-66
2021/12/12 17:37:14;;;;;;;18.05;12.02;;;;;;;9.00;100.00;101970.25;10570660;27;20688;-65
2021/12/12 17:42:54;;;;;;;15.35;11.55;;;;;;;9.03;100.00;101972.69;10559098;27;20407;-65
2021/12/12 17:48:34;;;;;;;16.95;12.07;;;;;;;9.02;100.00;101975.38;10549584;28;20507;-64
2021/12/12 17:54:08;;;;;;;16.63;12.52;;;;;;;9.07;100.00;101974.28;10556188;28;20495;-65
2021/12/12 17:59:46;;;;;;;17.33;12.68;;;;;;;9.15;100.00;101993.03;10515794;28;20411;-65
2021/12/12 18:05:13;;;;;;;22.00;14.45;;;;;;;9.16;100.00;101992.13;10547308;28;20044;-65
2021/12/12 18:10:40;;;;;;;24.23;16.55;;;;;;;9.09;100.00;101993.28;10546552;28;20419;-66
2021/12/12 18:16:08;;;;;;;24.33;16.00;;;;;;;9.13;100.00;101984.44;10527882;28;20044;-66
2021/12/12 18:21:53;;;;;;;21.23;15.32;;;;;;;9.15;100.00;101995.66;10519473;28;20055;-66
2021/12/12 18:27:31;;;;;;;20.95;14.27;;;;;;;9.18;100.00;101992.91;10519433;28;20048;-65
2021/12/12 18:33:05;;;;;;;23.67;15.75;;;;;;;9.21;100.00;102002.34;10538909;28;20504;-65
2021/12/12 18:38:33;;;;;;;23.52;15.88;;;;;;;9.18;100.00;102003.31;10561831;28;20391;-65
2021/12/12 18:44:02;;;;;;;24.50;15.77;;;;;;;9.22;100.00;102015.28;10577740;27;20048;-66
2021/12/12 18:49:28;;;;;;;23.13;14.45;;;;;;;9.17;100.00;102017.22;10541845;28;20051;-65
2021/12/12 18:55:00;;;;;;;22.88;15.20;;;;;;;9.23;100.00;102024.78;10554504;28;20047;-66
2021/12/12 19:00:28;;;;;;;20.98;14.85;;;;;;;9.27;100.00;102036.78;10548572;28;20047;-66
2021/12/12 19:05:51;;;;;;;22.02;15.27;;;;;;;9.32;100.00;102036.59;10561852;28;20048;-66
2021/12/12 19:11:42;;;;;;;24.63;16.35;;;;;;;9.32;100.00;102037.41;10560381;28;20056;-65
2021/12/12 19:17:15;;;;;;;22.92;15.93;;;;;;;9.31;100.00;102048.75;10559951;28;20058;-65
2021/12/12 19:22:37;;;;;;;22.38;15.38;;;;;;;9.34;100.00;102050.38;10549222;28;20054;-66
2021/12/12 19:27:59;;;;;;;23.70;15.15;;;;;;;9.36;100.00;102054.59;10531604;28;20039;-65
2021/12/12 19:33:24;;;;;;;22.55;15.30;;;;;;;9.37;100.00;102066.72;10568646;28;20047;-66
2021/12/12 19:38:47;;;;;;;28.55;15.90;;;;;;;9.37;100.00;102077.13;10558859;28;20065;-65
2021/12/12 19:44:09;;;;;;;26.55;16.15;;;;;;;9.39;100.00;102075.31;10556881;28;20054;-65
2021/12/12 19:49:33;;;;;;;25.42;14.30;;;;;;;9.37;100.00;102074.53;10557952;28;20160;-65
2021/12/12 19:55:17;;;;;;;19.85;12.63;;;;;;;9.42;100.00;102075.19;10554710;27;20047;-65
2021/12/12 20:00:43;;;;;;;20.27;13.45;;;;;;;9.42;100.00;102070.00;10561255;28;20055;-65
2021/12/12 20:06:12;;;;;;;21.08;13.80;;;;;;;9.45;100.00;102090.69;10553588;28;20044;-65
2021/12/12 20:11:47;;;;;;;20.45;13.50;;;;;;;9.47;100.00;102083.66;10538994;28;20062;-66
2021/12/12 20:17:23;;;;;;;20.42;14.07;;;;;;;9.46;100.00;102076.75;10532821;28;20051;-66
2021/12/12 20:22:48;;;;;;;22.80;15.15;;;;;;;9.47;100.00;102083.66;10546513;28;20047;-65
2021/12/12 20:28:47;;;;;;;20.90;12.80;;;;;;;9.53;100.00;102080.81;10545988;28;20511;-65
2021/12/12 20:34:21;;;;;;;19.83;13.55;;;;;;;9.56;100.00;102088.50;10483977;28;20614;-65
2021/12/12 20:39:47;;;;;;;22.42;13.95;;;;;;;9.53;100.00;102101.63;10522362;28;20052;-65
2021/12/12 20:45:18;;;;;;;25.15;13.82;;;;;;;9.55;100.00;102102.44;10535932;28;20097;-65
2021/12/12 20:51:28;;;;;;;23.08;14.52;;;;;;;9.61;100.00;102105.63;10523460;28;20052;-65
2021/12/12 20:56:56;;;;;;;23.10;13.90;;;;;;;9.62;100.00;102099.50;10460739;28;20072;-66
2021/12/12 21:02:34;;;;;;;28.73;15.65;;;;;;;9.61;100.00;102104.75;10539605;28;20048;-65
2021/12/12 21:07:57;;;;;;;26.00;15.20;;;;;;;9.69;100.00;102103.53;10554017;28;20131;-65
2021/12/12 21:13:24;;;;;;;29.88;15.50;;;;;;;9.72;100.00;102105.19;10553418;28;20043;-66
2021/12/12 21:18:54;;;;;;;30.30;16.13;;;;;;;9.68;100.00;102107.06;10563627;28;20483;-66
2021/12/12 21:24:19;;;;;;;34.17;15.98;;;;;;;9.72;100.00;102111.25;10561513;28;20047;-65
2021/12/12 21:29:43;;;;;;;33.38;16.63;;;;;;;9.75;100.00;102111.13;10543392;28;20052;-65
2021/12/12 21:35:04;;;;;;;33.90;16.02;;;;;;;9.72;100.00;102106.03;10561792;28;20050;-65
2021/12/12 21:40:26;;;;;;;34.20;17.30;;;;;;;9.78;100.00;102111.00;10558169;28;20047;-65
2021/12/12 21:45:51;;;;;;;32.97;15.88;;;;;;;9.78;100.00;102112.75;10561684;28;20047;-65
2021/12/12 21:51:13;;;;;;;37.83;17.40;;;;;;;9.80;100.00;102109.19;10549508;28;20056;-65
2021/12/12 21:56:34;;;;;;;31.35;16.27;;;;;;;9.87;100.00;102108.00;10537103;28;20058;-65
2021/12/12 22:02:00;;;;;;;30.13;16.02;;;;;;;9.83;100.00;102108.22;10551589;28;20058;-65
2021/12/12 22:07:22;;;;;;;31.38;15.68;;;;;;;9.87;100.00;102120.19;10532784;28;20384;-66
2021/12/12 22:12:46;;;;;;;28.15;14.70;;;;;;;9.88;100.00;102111.47;10535923;28;20051;-66
2021/12/12 22:18:08;;;;;;;27.08;14.98;;;;;;;9.94;100.00;102126.84;10521517;27;20388;-66
2021/12/12 22:23:32;;;;;;;23.42;12.95;;;;;;;10.01;100.00;102128.31;10546844;28;20274;-66
2021/12/12 22:28:54;;;;;;;24.73;13.63;;;;;;;9.93;100.00;102127.75;10548043;27;20052;-66
2021/12/12 22:34:17;;;;;;;22.30;12.77;;;;;;;9.97;100.00;102127.56;10558446;28;20534;-66
2021/12/12 22:39:44;;;;;;;17.40;10.90;;;;;;;10.06;100.00;102131.56;10522120;28;20518;-66
2021/12/12 22:45:08;;;;;;;19.70;10.98;;;;;;;10.07;100.00;102133.25;10533166;28;20056;-66
2021/12/12 22:50:44;;;;;;;21.92;11.68;;;;;;;10.06;100.00;102136.78;10521568;28;20496;-65
2021/12/12 22:56:18;;;;;;;;;;;;;;;10.10;100.00;102143.56;10519724;28;20059;-66
2021/12/12 23:02:03;;;;;;;18.27;11.20;;;;;;;10.13;100.00;102152.09;10524102;27;19920;-66
2021/12/12 23:07:54;;;;;;;18.85;11.27;;;;;;;10.20;100.00;102155.28;10534078;28;20043;-66
2021/12/12 23:13:23;;;;;;;21.13;11.80;;;;;;;10.18;100.00;102154.53;10529927;28;20048;-66
2021/12/12 23:18:57;;;;;;;18.70;11.38;;;;;;;10.20;100.00;102155.28;10541118;28;20043;-65
2021/12/12 23:24:39;;;;;;;22.13;12.02;;;;;;;10.22;100.00;102153.47;10537508;28;20863;-66
2021/12/12 23:30:01;;;;;;;21.17;11.32;;;;;;;10.21;100.00;102156.97;10554237;27;20764;-65
2021/12/12 23:35:28;;;;;;;22.00;11.98;;;;;;;10.21;100.00;102156.97;10545893;28;20048;-65
2021/12/12 23:40:56;;;;;;;28.67;13.27;;;;;;;10.24;100.00;102162.06;10551980;28;20054;-66
2021/12/12 23:46:32;;;;;;;27.65;14.40;;;;;;;10.28;100.00;102158.44;10554283;27;20066;-66
2021/12/12 23:52:05;;;;;;;29.52;13.45;;;;;;;10.23;100.00;102166.44;10546372;28;20057;-66
2021/12/12 23:57:27;;;;;;;28.63;13.75;;;;;;;10.28;100.00;102163.66;10553318;28;20039;-66
